Orlando Sanford International Airport
KSFB : now visible

Airfield :











YOU CAN JOIN US ON...

 
LOGIN :

Register | Disclaimer

   EN    FR    IT 

 









Legend :    VFR   Marginal VFR   IFR   Intensive IFR   Very Intensive IFR
Visi :
Ceiling :
>= 8 km
>= 3000ft
5 to 8 km
1000 to 3000 ft
1500m to 5 km
500 to 1000 ft
800 to 1500m
200 to 500 ft
< 800m
< 200 ft
Symbols :   Thunderstorms  Fog  Heavy snow  Heavy precipitations  Wind > 20 kt






- Airport Elevation : 55 ft
- IATA code : SFB


KSFB - Orlando Sanford International

CURRENT METAR :
  • 130526Z AUTO 10008KT 10SM FEW018 BKN035 OVC110 22/20 A3012 RMK AO2 T02220200 $

EXPIRED METARs :
  • 130453Z AUTO 08006KT 10SM SCT012 BKN017 OVC031 21/20 A3014 RMK AO2 RAE30 SLP204 T02110200 402390189 $
  • 130434Z AUTO 09004KT 10SM BKN012 OVC019 21/20 A3015 RMK AO2 RAE30 T02110200 PNO $
  • 130353Z 10006KT 6SM -RA BR SCT008 BKN017 OVC024 21/20 A3016 RMK AO2 SLP213 T02110200 PNO $
  • 130331Z 11006KT 3SM RA BR SCT009 BKN012 OVC026 21/20 A3017 RMK AO2 T02110200 PNO $
  • 130300Z 09006KT 10SM -RA BKN015 OVC025 21/20 A3017 RMK AO2 T02110200 PNO $
  • 130253Z 09006KT 8SM -RA BKN011 OVC013 21/20 A3017 RMK AO2 SLP216 6//// T02110200 58006 PNO $

TAF KSFB
Valid from the 13 at 00:00 until the 14 at 00:00 UTC


122338Z 1300/1324 07009KT P6SM VCSH SCT010 BKN025 OVC050
TEMPO 1300/1303 3SM RA BR BKN008 OVC020
FM130800 09005KT P6SM VCSH FEW030 BKN060 OVC120
FM131400 17008KT P6SM SCT030 BKN050 OVC100
FM132100 21007KT P6SM VCSH SCT025 BKN120



MET'MAP, your aeronautical weather chart ! - Copyright ORBIFLY December 2007 - Disclaimer

ORBIFLY MET'MAP TEAM :

Programming & Development : Alexandra Zaïnal
Concept & original design : Baudouin d'Aumeries
Assistance for programming : Marc-Olivier Méhu
Technical & hardware support : Manuel Goepfert

Contact : metmap@orbifly.com




SOURCES & CREDITS :

   NOAA       Earth
Advisory